Aparecida do Rio Doce, Brazil
Current Conditions -  °F | °C
As of 7:00 AM on Wednesday 28 Jan 2015 (Local Time) from SBGO Reporting Station
Scattered Clouds Scattered Clouds  
Wind Chill: 70°   Ceiling: Unl
Heat Index: 70°   Visibility: 6mi
Dew Point: 66°   Wind: 3mph
Humidity: 88%   Direction: 90°E
Pressure: 30.03"   Gusts: NA
Location:  18.3°S, 51.15°W
Report Text: SBGO 280900Z 09003KT 9999 FEW045 SCT080 21/19 Q1017
Loading
Personal Weather Stations






























Interactive Weather Map New forecast layout! Learn more

10-Day Weather Forecast

Advertisements
Track Severe Weather on mobile